createdAt,value
2022-11-10T00:00:23.357Z,91.30
2022-11-10T00:02:49.921Z,91.30
2022-11-10T00:05:16.505Z,91.20
2022-11-10T00:07:43.056Z,91.20
2022-11-10T00:10:09.897Z,91.20
2022-11-10T00:12:36.727Z,91.20
2022-11-10T00:15:22.274Z,91.20
2022-11-10T00:17:48.874Z,91.20
2022-11-10T00:20:15.583Z,91.20
2022-11-10T00:22:42.590Z,91.20
2022-11-10T00:25:09.933Z,91.20
2022-11-10T00:27:36.539Z,91.20
2022-11-10T00:30:03.478Z,91.20
2022-11-10T00:32:30.069Z,91.20
2022-11-10T00:34:56.625Z,91.20
2022-11-10T00:37:23.290Z,91.20
2022-11-10T00:39:49.932Z,91.20
2022-11-10T00:42:16.493Z,91.20
2022-11-10T00:44:43.115Z,91.10
2022-11-10T00:47:09.676Z,91.20
2022-11-10T00:49:36.226Z,91.10
2022-11-10T00:52:02.803Z,91.10
2022-11-10T00:54:29.343Z,91.10
2022-11-10T00:56:55.990Z,91.10
2022-11-10T00:59:22.573Z,91.10
2022-11-10T01:01:49.169Z,91.10
2022-11-10T01:04:15.765Z,91.10
2022-11-10T01:06:42.375Z,91.10
2022-11-10T01:09:08.980Z,91.10
2022-11-10T01:11:35.551Z,91.10
2022-11-10T01:14:02.088Z,91.10
2022-11-10T01:16:30.860Z,91.10
2022-11-10T01:19:00.185Z,91.10
2022-11-10T01:21:27.668Z,91.10
2022-11-10T01:23:54.639Z,91.10
2022-11-10T01:26:21.219Z,91.10
2022-11-10T01:28:47.960Z,91.10
2022-11-10T01:31:19.233Z,91.10
2022-11-10T01:33:46.169Z,91.10
2022-11-10T01:36:15.894Z,91.10
2022-11-10T01:38:43.566Z,91.10
2022-11-10T01:41:12.162Z,91.10
2022-11-10T01:43:39.286Z,91.10
2022-11-10T01:46:11.519Z,91.10
2022-11-10T01:48:44.280Z,91.10
2022-11-10T01:51:37.752Z,91.10
2022-11-10T01:54:14.177Z,91.10
2022-11-10T01:56:47.436Z,91.10
2022-11-10T01:59:25.728Z,91.10
2022-11-10T02:01:56.222Z,91.10
2022-11-10T02:04:23.388Z,91.10
2022-11-10T02:06:51.031Z,91.10
2022-11-10T02:09:18.268Z,91.10
2022-11-10T02:11:46.523Z,91.00
2022-11-10T02:14:14.471Z,91.00
2022-11-10T02:16:42.060Z,91.00
2022-11-10T02:19:21.213Z,91.10
2022-11-10T02:21:48.083Z,91.00
2022-11-10T02:24:15.551Z,91.00
2022-11-10T02:26:54.943Z,91.10
2022-11-10T02:29:23.155Z,91.10
2022-11-10T02:31:49.773Z,91.10
2022-11-10T02:34:16.345Z,91.00
2022-11-10T02:36:42.892Z,91.10
2022-11-10T02:39:09.589Z,91.10
2022-11-10T02:41:36.196Z,91.00
2022-11-10T02:44:04.382Z,91.00
2022-11-10T02:46:30.936Z,91.00
2022-11-10T02:48:57.876Z,91.10
2022-11-10T02:51:24.519Z,91.00
2022-11-10T02:53:51.136Z,91.10
2022-11-10T02:56:17.711Z,91.10
2022-11-10T02:58:44.352Z,91.10
2022-11-10T03:01:11.172Z,91.10
2022-11-10T03:03:37.864Z,91.00
2022-11-10T03:06:04.604Z,91.00
2022-11-10T03:08:31.200Z,91.00
2022-11-10T03:10:57.778Z,91.00
2022-11-10T03:13:25.584Z,91.00
2022-11-10T03:15:54.006Z,91.00
2022-11-10T03:18:20.626Z,91.00
2022-11-10T03:20:48.932Z,91.00
2022-11-10T03:23:17.946Z,91.00
2022-11-10T03:25:45.035Z,91.00
2022-11-10T03:28:12.426Z,91.00
2022-11-10T03:30:39.568Z,91.00
2022-11-10T03:33:06.511Z,91.00
2022-11-10T03:35:33.145Z,91.00
2022-11-10T03:37:59.707Z,91.00
2022-11-10T03:40:26.772Z,91.00
2022-11-10T03:42:54.429Z,91.00
2022-11-10T03:45:21.062Z,91.00
2022-11-10T03:47:49.201Z,91.00
2022-11-10T03:50:16.774Z,91.00
2022-11-10T03:52:44.853Z,91.00
2022-11-10T03:55:13.993Z,91.00
2022-11-10T03:57:40.600Z,91.00
2022-11-10T04:00:09.451Z,91.00
2022-11-10T04:02:36.873Z,91.00
2022-11-10T04:05:22.561Z,91.00
2022-11-10T04:08:07.958Z,91.00
2022-11-10T04:10:37.264Z,91.00
2022-11-10T04:13:22.927Z,91.00
2022-11-10T04:15:49.709Z,91.00
2022-11-10T04:18:25.594Z,91.00
2022-11-10T04:20:59.331Z,91.00
2022-11-10T04:23:34.737Z,91.00
2022-11-10T04:26:21.925Z,91.00
2022-11-10T04:28:50.951Z,91.00
2022-11-10T04:31:19.540Z,91.00
2022-11-10T04:33:47.183Z,91.00
2022-11-10T04:36:19.554Z,91.00
2022-11-10T04:38:46.423Z,91.00
2022-11-10T04:41:13.779Z,91.00
2022-11-10T04:43:40.892Z,91.00
2022-11-10T04:46:15.509Z,91.00
2022-11-10T04:48:42.055Z,91.00
2022-11-10T04:51:10.083Z,91.00
2022-11-10T04:53:36.884Z,91.00
2022-11-10T04:56:03.657Z,91.00
2022-11-10T04:58:30.234Z,91.00
2022-11-10T05:00:56.888Z,91.00
2022-11-10T05:03:24.061Z,91.00
2022-11-10T05:05:50.865Z,91.00
2022-11-10T05:08:17.436Z,91.00
2022-11-10T05:10:44.058Z,91.00
2022-11-10T05:13:11.361Z,91.00
2022-11-10T05:15:41.248Z,91.00
2022-11-10T05:18:07.846Z,91.00
2022-11-10T05:20:34.459Z,91.00
2022-11-10T05:23:30.095Z,91.00
2022-11-10T05:25:56.678Z,91.00
2022-11-10T05:28:23.611Z,91.00
2022-11-10T05:30:50.217Z,91.00
2022-11-10T05:33:16.897Z,90.90
2022-11-10T05:35:44.153Z,90.90
2022-11-10T05:38:10.851Z,90.20
2022-11-10T05:40:37.410Z,91.00
2022-11-10T05:43:04.043Z,91.10
2022-11-10T05:45:30.706Z,91.00
2022-11-10T05:47:57.318Z,91.00
2022-11-10T05:50:25.461Z,91.00
2022-11-10T05:52:53.602Z,90.90
2022-11-10T05:55:23.487Z,90.90
2022-11-10T05:57:51.415Z,90.90
2022-11-10T06:00:23.751Z,91.20
2022-11-10T06:03:07.741Z,90.90
2022-11-10T06:05:35.939Z,90.90
2022-11-10T06:08:04.484Z,90.90
2022-11-10T06:10:31.994Z,90.90
2022-11-10T06:12:58.952Z,90.90
2022-11-10T06:15:26.217Z,90.90
2022-11-10T06:17:53.310Z,90.90
2022-11-10T06:20:20.509Z,90.90
2022-11-10T06:23:04.028Z,90.90
2022-11-10T06:25:32.717Z,90.90
2022-11-10T06:27:59.914Z,90.70
2022-11-10T06:30:27.754Z,91.00
2022-11-10T06:32:54.769Z,91.00
2022-11-10T06:35:22.483Z,90.90
2022-11-10T06:37:58.440Z,91.00
2022-11-10T06:40:25.175Z,91.10
2022-11-10T06:42:51.772Z,91.00
2022-11-10T06:45:18.324Z,91.10
2022-11-10T06:47:44.884Z,91.10
2022-11-10T06:50:11.451Z,91.10
2022-11-10T06:52:38.009Z,91.00
2022-11-10T06:55:05.044Z,91.00
2022-11-10T06:57:38.125Z,91.00
2022-11-10T07:00:05.319Z,91.00
2022-11-10T07:02:31.913Z,91.00
2022-11-10T07:04:58.455Z,91.00
2022-11-10T07:07:25.072Z,91.00
2022-11-10T07:09:51.615Z,91.00
2022-11-10T07:12:18.148Z,91.00
2022-11-10T07:14:44.719Z,91.00
2022-11-10T07:17:11.261Z,91.10
2022-11-10T07:19:37.834Z,91.10
2022-11-10T07:22:09.582Z,91.00
2022-11-10T07:24:37.507Z,91.00
2022-11-10T07:27:04.185Z,91.00
2022-11-10T07:29:30.734Z,91.00
2022-11-10T07:31:57.343Z,91.00
2022-11-10T07:34:23.908Z,91.00
2022-11-10T07:36:50.803Z,91.00
2022-11-10T07:39:17.442Z,91.10
2022-11-10T07:41:45.155Z,91.10
2022-11-10T07:44:14.258Z,91.10
2022-11-10T07:46:40.814Z,91.10
2022-11-10T07:49:08.353Z,91.00
2022-11-10T07:51:34.894Z,91.00
2022-11-10T07:54:01.484Z,91.00
2022-11-10T07:56:28.294Z,91.00
2022-11-10T07:58:54.900Z,91.00
2022-11-10T08:01:21.596Z,91.00
2022-11-10T08:03:48.234Z,91.00
2022-11-10T08:06:14.854Z,91.00
2022-11-10T08:08:41.445Z,91.00
2022-11-10T08:11:08.085Z,91.00
2022-11-10T08:13:38.888Z,91.00
2022-11-10T08:16:05.884Z,91.00
2022-11-10T08:18:35.316Z,90.90
2022-11-10T08:21:03.551Z,91.00
2022-11-10T08:23:30.380Z,91.00
2022-11-10T08:26:01.278Z,91.00
2022-11-10T08:28:28.005Z,91.00
2022-11-10T08:30:55.062Z,91.00
2022-11-10T08:33:22.430Z,91.00
2022-11-10T08:35:51.278Z,91.00
2022-11-10T08:38:20.842Z,91.00
2022-11-10T08:40:47.724Z,91.00
2022-11-10T08:43:15.790Z,91.00
2022-11-10T08:45:44.491Z,91.00
2022-11-10T08:48:14.246Z,91.00
2022-11-10T08:50:42.068Z,91.00
2022-11-10T08:53:13.017Z,91.00
2022-11-10T08:55:40.679Z,91.00
2022-11-10T08:58:08.576Z,91.00
2022-11-10T09:00:35.565Z,91.00
2022-11-10T09:03:27.037Z,90.90
2022-11-10T09:05:58.272Z,90.90
2022-11-10T09:08:25.683Z,91.10
2022-11-10T09:10:52.336Z,91.10
2022-11-10T09:13:29.020Z,91.10
2022-11-10T09:16:00.222Z,91.10
2022-11-10T09:18:26.792Z,91.00
2022-11-10T09:20:53.482Z,91.10
2022-11-10T09:23:20.743Z,91.10
2022-11-10T09:25:55.525Z,91.10
2022-11-10T09:28:22.880Z,91.10
2022-11-10T09:30:51.560Z,91.00
2022-11-10T09:33:18.407Z,91.20
2022-11-10T09:35:45.176Z,89.60
2022-11-10T09:38:12.106Z,89.90
2022-11-10T09:40:48.652Z,90.10
2022-11-10T09:43:21.636Z,90.30
2022-11-10T09:45:53.849Z,90.30
2022-11-10T09:48:27.479Z,91.20
2022-11-10T09:51:05.324Z,91.00
2022-11-10T09:53:55.035Z,90.80
2022-11-10T09:56:35.835Z,90.70
2022-11-10T09:59:19.528Z,90.60
2022-11-10T10:02:00.045Z,90.50
2022-11-10T10:04:52.344Z,90.50
2022-11-10T10:07:48.321Z,90.50
2022-11-10T10:10:41.166Z,90.50
2022-11-10T10:13:26.366Z,90.50
2022-11-10T10:16:11.682Z,90.40
2022-11-10T10:18:51.652Z,90.50
2022-11-10T10:21:44.729Z,90.40
2022-11-10T10:24:21.173Z,90.40
2022-11-10T10:26:54.547Z,90.50
2022-11-10T10:29:33.111Z,90.40
2022-11-10T10:32:03.874Z,90.40
2022-11-10T10:34:34.332Z,90.40
2022-11-10T10:37:01.208Z,90.50
2022-11-10T10:39:46.763Z,90.50
2022-11-10T10:42:22.935Z,90.40
2022-11-10T10:45:14.377Z,90.50
2022-11-10T10:47:41.728Z,90.50
2022-11-10T10:50:29.694Z,90.50
2022-11-10T10:53:08.195Z,90.50
2022-11-10T10:55:36.328Z,90.50
2022-11-10T10:58:38.728Z,90.50
2022-11-10T11:01:06.623Z,90.50
2022-11-10T11:03:45.249Z,90.60
2022-11-10T11:06:14.766Z,90.70
2022-11-10T11:09:16.353Z,90.80
2022-11-10T11:11:46.195Z,90.90
2022-11-10T11:14:14.367Z,90.90
2022-11-10T11:16:49.928Z,90.80
2022-11-10T11:19:18.579Z,90.90
2022-11-10T11:22:05.221Z,89.40
2022-11-10T11:24:57.051Z,90.00
2022-11-10T11:27:41.732Z,89.90
2022-11-10T11:30:16.293Z,90.20
2022-11-10T11:33:15.930Z,89.00
2022-11-10T11:36:02.746Z,89.90
2022-11-10T11:39:02.855Z,89.10
2022-11-10T11:41:58.435Z,89.20
2022-11-10T11:44:27.970Z,89.10
2022-11-10T11:47:26.001Z,88.80
2022-11-10T11:50:36.787Z,89.30
2022-11-10T11:53:12.429Z,88.60
2022-11-10T11:55:44.731Z,88.90
2022-11-10T11:58:45.756Z,89.20
2022-11-10T12:01:21.553Z,89.70
2022-11-10T12:04:22.076Z,89.40
2022-11-10T12:06:48.703Z,90.00
2022-11-10T12:09:47.544Z,88.90
2022-11-10T12:12:33.999Z,89.40
2022-11-10T12:15:20.896Z,89.90
2022-11-10T12:17:53.293Z,89.90
2022-11-10T12:20:31.154Z,89.90
2022-11-10T12:23:35.219Z,90.00
2022-11-10T12:26:31.347Z,90.00
2022-11-10T12:29:18.822Z,90.10
2022-11-10T12:31:47.801Z,90.20
2022-11-10T12:34:40.625Z,90.30
2022-11-10T12:37:16.052Z,90.30
2022-11-10T12:40:09.008Z,90.30
2022-11-10T12:42:38.322Z,90.40
2022-11-10T12:45:26.144Z,90.40
2022-11-10T12:47:54.946Z,90.40
2022-11-10T12:51:03.514Z,90.50
2022-11-10T12:53:33.691Z,90.50
2022-11-10T12:56:13.655Z,90.50
2022-11-10T12:58:40.535Z,90.50
2022-11-10T13:01:15.208Z,90.60
2022-11-10T13:03:59.001Z,90.60
2022-11-10T13:06:28.619Z,90.60
2022-11-10T13:08:55.544Z,90.50
2022-11-10T13:11:34.136Z,90.60
2022-11-10T13:14:18.621Z,90.60
2022-11-10T13:16:49.418Z,90.60
2022-11-10T13:19:25.091Z,90.60
2022-11-10T13:21:51.682Z,90.50
2022-11-10T13:24:22.781Z,90.60
2022-11-10T13:26:51.012Z,90.60
2022-11-10T13:29:43.479Z,90.60
2022-11-10T13:32:21.893Z,90.60
2022-11-10T13:34:48.610Z,90.60
2022-11-10T13:37:32.867Z,90.80
2022-11-10T13:40:20.545Z,90.50
2022-11-10T13:42:59.341Z,90.40
2022-11-10T13:45:35.117Z,90.30
2022-11-10T13:48:17.816Z,90.30
2022-11-10T13:51:42.321Z,90.30
2022-11-10T13:54:39.761Z,90.20
2022-11-10T13:57:22.596Z,90.10
2022-11-10T13:59:56.395Z,90.10
2022-11-10T14:02:38.755Z,90.10
2022-11-10T14:05:07.784Z,90.00
2022-11-10T14:07:42.398Z,90.00
2022-11-10T14:10:16.065Z,90.10
2022-11-10T14:12:53.410Z,90.10
2022-11-10T14:15:23.878Z,90.20
2022-11-10T14:17:53.081Z,90.10
2022-11-10T14:20:32.605Z,90.00
2022-11-10T14:23:00.893Z,90.00
2022-11-10T14:25:43.027Z,86.40
2022-11-10T14:28:33.459Z,89.60
2022-11-10T14:31:00.593Z,89.60
2022-11-10T14:33:27.552Z,89.50
2022-11-10T14:35:58.495Z,89.60
2022-11-10T14:38:27.668Z,89.90
2022-11-10T14:40:57.745Z,90.00
2022-11-10T14:43:28.464Z,90.00
2022-11-10T14:45:55.500Z,90.00
2022-11-10T14:48:27.135Z,90.10
2022-11-10T14:50:54.420Z,90.10
2022-11-10T14:53:35.026Z,90.10
2022-11-10T14:56:04.502Z,90.30
2022-11-10T14:58:35.044Z,90.40
2022-11-10T15:01:03.399Z,90.30
2022-11-10T15:03:39.941Z,90.30
2022-11-10T15:06:11.692Z,90.40
2022-11-10T15:08:40.326Z,90.40
2022-11-10T15:11:07.705Z,90.20
2022-11-10T15:13:37.635Z,90.20
2022-11-10T15:16:22.939Z,90.20
2022-11-10T15:18:50.946Z,90.20
2022-11-10T15:21:20.261Z,90.20
2022-11-10T15:23:56.660Z,90.20
2022-11-10T15:26:26.069Z,90.20
2022-11-10T15:28:52.983Z,90.30
2022-11-10T15:31:26.681Z,90.20
2022-11-10T15:33:56.103Z,90.30
2022-11-10T15:36:22.607Z,90.20
2022-11-10T15:39:23.144Z,90.30
2022-11-10T15:41:56.860Z,90.20
2022-11-10T15:44:30.016Z,90.30
2022-11-10T15:46:58.645Z,90.30
2022-11-10T15:49:38.231Z,90.40
2022-11-10T15:52:17.273Z,90.50
2022-11-10T15:54:45.118Z,90.40
2022-11-10T15:57:13.767Z,90.30
2022-11-10T15:59:40.855Z,90.30
2022-11-10T16:02:20.759Z,90.40
2022-11-10T16:04:48.882Z,90.40
2022-11-10T16:07:15.639Z,90.50
2022-11-10T16:09:42.322Z,90.40
2022-11-10T16:12:22.906Z,90.40
2022-11-10T16:14:52.334Z,90.40
2022-11-10T16:17:19.203Z,90.40
2022-11-10T16:19:46.805Z,90.40
2022-11-10T16:22:13.899Z,90.40
2022-11-10T16:24:40.922Z,90.40
2022-11-10T16:27:11.480Z,90.40
2022-11-10T16:29:38.264Z,90.40
2022-11-10T16:32:05.148Z,90.40
2022-11-10T16:34:31.720Z,90.40
2022-11-10T16:36:58.558Z,90.40
2022-11-10T16:39:25.194Z,90.40
2022-11-10T16:41:51.720Z,90.40
2022-11-10T16:44:25.091Z,90.40
2022-11-10T16:46:56.609Z,90.70
2022-11-10T16:49:28.081Z,90.40
2022-11-10T16:51:54.666Z,90.40
2022-11-10T16:54:21.340Z,90.40
2022-11-10T16:56:47.910Z,90.40
2022-11-10T16:59:14.466Z,90.40
2022-11-10T17:01:42.853Z,90.40
2022-11-10T17:04:12.662Z,90.50
2022-11-10T17:06:40.401Z,90.50
2022-11-10T17:09:13.074Z,90.50
2022-11-10T17:11:39.719Z,90.60
2022-11-10T17:14:07.173Z,90.50
2022-11-10T17:16:39.103Z,90.50
2022-11-10T17:19:07.666Z,90.50
2022-11-10T17:21:36.285Z,90.50
2022-11-10T17:24:04.576Z,90.50
2022-11-10T17:26:31.692Z,90.50
2022-11-10T17:28:58.355Z,90.50
2022-11-10T17:31:24.944Z,90.50
2022-11-10T17:33:51.481Z,90.60
2022-11-10T17:36:23.261Z,90.50
2022-11-10T17:38:51.297Z,90.50
2022-11-10T17:41:19.803Z,90.50
2022-11-10T17:43:47.194Z,90.60
2022-11-10T17:46:14.931Z,90.60
2022-11-10T17:48:41.892Z,90.20
2022-11-10T17:51:17.098Z,90.60
2022-11-10T17:53:43.660Z,90.60
2022-11-10T17:56:10.188Z,90.50
2022-11-10T17:58:36.835Z,90.60
2022-11-10T18:01:12.640Z,90.60
2022-11-10T18:03:40.023Z,90.60
2022-11-10T18:06:07.088Z,90.60
2022-11-10T18:08:33.629Z,90.60
2022-11-10T18:11:01.081Z,90.60
2022-11-10T18:13:27.594Z,90.60
2022-11-10T18:15:58.267Z,90.30
2022-11-10T18:18:24.857Z,89.40
2022-11-10T18:20:51.430Z,90.60
2022-11-10T18:23:18.003Z,90.60
2022-11-10T18:25:44.599Z,90.60
2022-11-10T18:28:13.987Z,90.60
2022-11-10T18:30:40.847Z,90.60
2022-11-10T18:33:07.674Z,90.60
2022-11-10T18:35:38.314Z,90.60
2022-11-10T18:38:06.595Z,90.60
2022-11-10T18:40:33.436Z,90.60
2022-11-10T18:43:05.925Z,90.60
2022-11-10T18:45:33.737Z,90.60
2022-11-10T18:48:02.978Z,90.70
2022-11-10T18:50:30.179Z,90.70
2022-11-10T18:52:57.102Z,90.70
2022-11-10T18:55:23.670Z,90.60
2022-11-10T18:57:50.198Z,90.70
2022-11-10T19:00:16.923Z,90.70
2022-11-10T19:02:43.508Z,90.70
2022-11-10T19:05:10.062Z,90.70
2022-11-10T19:07:36.607Z,90.80
2022-11-10T19:10:03.523Z,90.70
2022-11-10T19:12:32.134Z,90.80
2022-11-10T19:14:58.771Z,90.70
2022-11-10T19:17:25.385Z,90.80
2022-11-10T19:19:57.022Z,90.70
2022-11-10T19:22:24.040Z,90.80
2022-11-10T19:27:37.186Z,90.70
2022-11-10T19:30:04.155Z,90.80
2022-11-10T19:32:30.782Z,90.70
2022-11-10T19:34:58.439Z,90.70
2022-11-10T19:37:25.001Z,90.80
2022-11-10T19:39:51.593Z,90.80
2022-11-10T19:42:18.323Z,90.80
2022-11-10T19:44:44.851Z,90.80
2022-11-10T19:47:11.660Z,90.80
2022-11-10T19:49:38.548Z,90.80
2022-11-10T19:52:05.208Z,90.80
2022-11-10T19:54:31.762Z,90.80
2022-11-10T19:56:58.468Z,90.80
2022-11-10T19:59:25.112Z,90.80
2022-11-10T20:01:51.719Z,90.80
2022-11-10T20:04:18.557Z,90.80
2022-11-10T20:06:45.195Z,90.80
2022-11-10T20:09:11.845Z,90.80
2022-11-10T20:11:38.663Z,90.80
2022-11-10T20:14:06.801Z,90.80
2022-11-10T20:16:33.514Z,90.80
2022-11-10T20:19:00.095Z,90.80
2022-11-10T20:21:26.671Z,90.80
2022-11-10T20:23:55.293Z,90.90
2022-11-10T20:26:22.710Z,90.90
2022-11-10T20:28:49.649Z,90.90
2022-11-10T20:31:23.488Z,90.80
2022-11-10T20:33:51.792Z,90.90
2022-11-10T20:36:21.955Z,90.90
2022-11-10T20:38:49.239Z,90.90
2022-11-10T20:41:19.222Z,90.90
2022-11-10T20:43:46.463Z,90.90
2022-11-10T20:46:33.405Z,90.90
2022-11-10T20:49:02.022Z,90.90
2022-11-10T20:51:28.592Z,90.90
2022-11-10T20:53:56.068Z,90.90
2022-11-10T20:56:28.268Z,90.90
2022-11-10T20:58:56.434Z,90.90
2022-11-10T21:01:23.445Z,90.90
2022-11-10T21:03:50.165Z,90.90
2022-11-10T21:06:16.838Z,91.10
2022-11-10T21:08:43.509Z,90.90
2022-11-10T21:11:10.658Z,90.90
2022-11-10T21:13:37.527Z,90.80
2022-11-10T21:16:06.521Z,90.80
2022-11-10T21:18:35.911Z,90.80
2022-11-10T21:21:18.222Z,90.80
2022-11-10T21:23:44.800Z,90.70
2022-11-10T21:26:12.848Z,90.70
2022-11-10T21:28:39.632Z,90.70
2022-11-10T21:31:06.339Z,90.70
2022-11-10T21:33:33.027Z,90.70
2022-11-10T21:36:06.028Z,90.70
2022-11-10T21:38:33.119Z,90.70
2022-11-10T21:40:59.719Z,90.70
2022-11-10T21:43:26.281Z,90.70
2022-11-10T21:46:01.118Z,90.70
2022-11-10T21:48:27.721Z,90.70
2022-11-10T21:50:59.651Z,90.70
2022-11-10T21:53:26.261Z,90.70
2022-11-10T21:56:06.095Z,90.70
2022-11-10T21:58:34.153Z,90.70
2022-11-10T22:01:12.924Z,90.70
2022-11-10T22:03:40.309Z,90.70
2022-11-10T22:06:09.301Z,90.70
2022-11-10T22:08:37.198Z,90.70
2022-11-10T22:11:23.443Z,90.70
2022-11-10T22:14:08.849Z,90.80
2022-11-10T22:17:02.292Z,90.80
2022-11-10T22:19:29.331Z,90.80
2022-11-10T22:21:59.516Z,90.80
2022-11-10T22:24:29.521Z,90.80
2022-11-10T22:26:58.639Z,90.80
2022-11-10T22:29:31.177Z,90.80
2022-11-10T22:31:59.746Z,90.80
2022-11-10T22:34:26.289Z,90.80
2022-11-10T22:36:54.577Z,90.80
2022-11-10T22:39:21.227Z,90.80
2022-11-10T22:42:06.390Z,90.80
2022-11-10T22:44:33.588Z,90.70
2022-11-10T22:47:00.175Z,90.70
2022-11-10T22:49:26.722Z,90.70
2022-11-10T22:51:55.196Z,90.70
2022-11-10T22:54:23.162Z,90.80
2022-11-10T22:56:50.921Z,90.80
2022-11-10T22:59:18.276Z,90.70
2022-11-10T23:01:45.164Z,90.70
2022-11-10T23:04:12.099Z,90.70
2022-11-10T23:06:38.897Z,90.70
2022-11-10T23:09:06.123Z,90.70
2022-11-10T23:11:33.927Z,90.70
2022-11-10T23:14:00.811Z,90.70
2022-11-10T23:16:33.702Z,90.70
2022-11-10T23:19:00.854Z,90.70
2022-11-10T23:21:29.751Z,90.70
2022-11-10T23:23:56.605Z,90.70
2022-11-10T23:26:25.203Z,90.70
2022-11-10T23:28:52.501Z,90.70
2022-11-10T23:31:21.772Z,90.70
2022-11-10T23:33:52.330Z,90.70
2022-11-10T23:36:20.317Z,90.70
2022-11-10T23:38:48.608Z,90.70
2022-11-10T23:41:17.573Z,90.70
2022-11-10T23:43:44.442Z,90.80
2022-11-10T23:46:11.675Z,90.70
2022-11-10T23:48:39.401Z,90.80
2022-11-10T23:51:07.724Z,90.80
2022-11-10T23:53:34.264Z,90.70
2022-11-10T23:56:03.615Z,90.80
2022-11-10T23:58:30.675Z,90.80
